Search for airport 
image banner adimage banner adimage banner ad
image banner ad

5CL8 - Creekside

Located in Arvin, United States

ICAO - 5CL8, IATA -

Data provided by Airmate  

General information

Coordinates: N35°10'34" W118°55'23"
Elevation is 335 feet MSL.
Magnetic variation is 14° East
View others Airports in California

Operational data

Special qualification required
Current time UTC:
Current local time:
Weather at : KBFL - Meadows Field ( 31 km )
METAR: KBFL 270354Z 33005KT 9SM CLR 27/16 A2990 RMK AO2 SLP116 T02670156
TAF: KBFL 262351Z 2700/2724 33008KT P6SM SCT100 BKN150 FM270800 VRB04KT P6SM SCT200
View NOTAMs / SUP AIP / TFR affecting this airport [VIEW]
Communications frequencies: [VIEW]

Runways:

RWY identifierQFULength (ft)Width (ft)SurfaceLDA (ft)
162000100OTHER
342000100OTHER

Airport contact information

Address: Arvin United States

Satellite view of 5CL8